Time;durP1;ratioP1;P1;durP2;ratioP2;P2;SDS_P1;SDS_P2;PMS_P1;PMS_P2;Temp;Humidity;BMP_temperature;BMP_pressure;BME280_temperature;BME280_humidity;BME280_pressure;Samples;Min_cycle;Max_cycle;Signal;HPM_P1;HPM_P2
2023/03/29 00:01:58;;;;;;;5.03;1.58;;;5.70;82.00;;;;;;5014324;28;20116;-70
2023/03/29 00:04:32;;;;;;;5.05;1.33;;;5.80;82.30;;;;;;5012207;28;20099;-69
2023/03/29 00:07:06;;;;;;;4.70;1.30;;;5.80;82.60;;;;;;5004865;28;20489;-68
2023/03/29 00:09:41;;;;;;;2.60;1.10;;;5.80;82.80;;;;;;5012401;28;20060;-71
2023/03/29 00:12:15;;;;;;;4.50;1.65;;;5.70;82.90;;;;;;5014698;28;20068;-70
2023/03/29 00:14:48;;;;;;;7.03;2.08;;;5.70;82.50;;;;;;5009474;28;20054;-70
2023/03/29 00:17:21;;;;;;;7.63;2.85;;;5.80;82.60;;;;;;5008486;28;20496;-71
2023/03/29 00:19:54;;;;;;;5.43;2.45;;;5.80;82.60;;;;;;5014127;28;20520;-71
2023/03/29 00:22:27;;;;;;;5.93;2.40;;;5.80;82.50;;;;;;5007833;28;20058;-71
2023/03/29 00:25:01;;;;;;;7.88;2.60;;;5.70;82.40;;;;;;4990258;28;20049;-69
2023/03/29 00:27:28;;;;;;;8.55;2.83;;;5.70;82.70;;;;;;5005556;28;20053;-69
2023/03/29 00:30:03;;;;;;;5.25;2.05;;;5.80;82.30;;;;;;5007073;28;20050;-70
2023/03/29 00:32:36;;;;;;;7.93;2.90;;;5.70;82.50;;;;;;5014980;28;20053;-70
2023/03/29 00:35:10;;;;;;;6.22;2.42;;;5.80;82.40;;;;;;5011707;28;20049;-71
2023/03/29 00:37:45;;;;;;;7.63;2.40;;;5.80;82.40;;;;;;5015161;28;20044;-71
2023/03/29 00:40:20;;;;;;;6.47;2.40;;;5.80;82.30;;;;;;5015741;28;20053;-70
2023/03/29 00:42:55;;;;;;;6.00;2.38;;;5.70;82.50;;;;;;5014303;28;20058;-69
2023/03/29 00:45:29;;;;;;;4.85;2.13;;;5.80;82.20;;;;;;5011482;28;20065;-70
2023/03/29 00:48:06;;;;;;;3.72;1.80;;;5.80;82.40;;;;;;5012802;28;20148;-71
2023/03/29 00:50:50;;;;;;;4.07;2.00;;;5.80;82.60;;;;;;5034516;28;20128;-70
2023/03/29 00:53:28;;;;;;;5.82;2.05;;;5.80;82.70;;;;;;5003383;28;20068;-70
2023/03/29 00:56:06;;;;;;;4.88;1.90;;;5.80;82.60;;;;;;5032162;28;20072;-71
2023/03/29 00:58:47;;;;;;;2.25;1.40;;;5.80;82.70;;;;;;5012081;28;20388;-72
2023/03/29 01:01:27;;;;;;;5.32;2.25;;;5.80;82.60;;;;;;5034484;28;20037;-70
2023/03/29 01:04:08;;;;;;;5.78;2.13;;;5.80;82.60;;;;;;5011612;28;20409;-70
2023/03/29 01:06:44;;;;;;;4.57;1.85;;;5.80;83.00;;;;;;5031231;28;21618;-70
2023/03/29 01:09:21;;;;;;;3.97;1.88;;;5.80;83.20;;;;;;5013213;28;20435;-70
2023/03/29 01:11:59;;;;;;;3.00;1.50;;;5.70;83.10;;;;;;5033012;28;20085;-71
2023/03/29 01:14:38;;;;;;;4.63;1.95;;;5.80;83.20;;;;;;5029258;28;20055;-70
2023/03/29 01:17:11;;;;;;;5.38;1.90;;;5.80;83.40;;;;;;4999942;28;20073;-70
2023/03/29 01:19:52;;;;;;;4.88;1.90;;;5.80;83.20;;;;;;5035445;28;20057;-70
2023/03/29 01:22:37;;;;;;;6.40;2.10;;;5.80;83.50;;;;;;5014658;28;20120;-69
2023/03/29 01:25:19;;;;;;;7.10;2.10;;;5.70;83.70;;;;;;5032199;28;20052;-71
2023/03/29 01:27:57;;;;;;;4.78;1.90;;;5.80;83.70;;;;;;5030301;28;20704;-68
2023/03/29 01:30:37;;;;;;;6.25;2.20;;;5.70;83.70;;;;;;5034952;28;20530;-69
2023/03/29 01:33:19;;;;;;;5.95;2.03;;;5.80;83.70;;;;;;5014215;28;20065;-70
2023/03/29 01:35:57;;;;;;;5.05;1.92;;;5.70;83.70;;;;;;5035216;28;20136;-71
2023/03/29 01:38:38;;;;;;;3.67;1.83;;;5.80;83.40;;;;;;5016163;28;20072;-70
2023/03/29 01:41:12;;;;;;;6.20;2.35;;;5.70;83.70;;;;;;5016740;28;20052;-71
2023/03/29 01:43:51;;;;;;;5.15;1.83;;;5.80;83.70;;;;;;5029681;28;20080;-71
2023/03/29 01:46:31;;;;;;;3.72;1.80;;;5.70;83.80;;;;;;5032056;28;20061;-70
2023/03/29 01:49:12;;;;;;;5.25;1.85;;;5.70;83.90;;;;;;5024541;28;20504;-69
2023/03/29 01:51:52;;;;;;;6.50;2.13;;;5.70;84.00;;;;;;5010891;28;20045;-68
2023/03/29 01:54:31;;;;;;;4.47;1.80;;;5.70;84.00;;;;;;5013971;28;20054;-71
2023/03/29 01:57:09;;;;;;;4.45;1.85;;;5.70;84.00;;;;;;4995782;28;20050;-71
2023/03/29 01:59:46;;;;;;;4.78;1.83;;;5.70;84.00;;;;;;5011198;28;20054;-71
2023/03/29 02:02:21;;;;;;;5.00;1.88;;;5.70;84.00;;;;;;5009737;28;20144;-71
2023/03/29 02:04:58;;;;;;;7.07;1.88;;;5.70;83.80;;;;;;5012085;28;20076;-71
2023/03/29 02:07:47;;;;;;;4.60;1.90;;;5.70;84.00;;;;;;5009580;28;20130;-68
2023/03/29 02:10:29;;;;;;;5.20;1.90;;;5.70;84.00;;;;;;5009683;28;20058;-70
2023/03/29 02:13:03;;;;;;;4.75;2.17;;;5.70;84.10;;;;;;4993225;28;20108;-70
2023/03/29 02:15:38;;;;;;;5.65;1.70;;;5.70;84.10;;;;;;5014504;28;20053;-69
2023/03/29 02:18:13;;;;;;;5.45;2.30;;;5.70;84.30;;;;;;5012914;28;20067;-69
2023/03/29 02:20:49;;;;;;;5.80;2.03;;;5.70;84.30;;;;;;5015508;28;20050;-68
2023/03/29 02:23:27;;;;;;;6.22;2.00;;;5.70;84.40;;;;;;5012720;28;20042;-69
2023/03/29 02:26:02;;;;;;;4.90;2.00;;;5.70;84.50;;;;;;5012725;28;20045;-69
2023/03/29 02:28:36;;;;;;;4.30;1.83;;;5.70;84.70;;;;;;4995826;28;20054;-69
2023/03/29 02:31:24;;;;;;;4.70;1.83;;;5.70;84.50;;;;;;5011286;28;20141;-68
2023/03/29 02:34:05;;;;;;;5.47;2.00;;;5.70;84.20;;;;;;5014493;28;20046;-70
2023/03/29 02:36:42;;;;;;;3.83;1.60;;;5.70;84.10;;;;;;4994449;28;20149;-69
2023/03/29 02:39:18;;;;;;;5.88;1.80;;;5.70;84.40;;;;;;4994851;28;20573;-71
2023/03/29 02:41:53;;;;;;;4.32;1.80;;;5.70;84.50;;;;;;4994330;28;20518;-68
2023/03/29 02:44:30;;;;;;;4.45;1.58;;;5.70;84.50;;;;;;4995938;28;20056;-71
2023/03/29 02:47:12;;;;;;;4.40;2.00;;;5.70;84.60;;;;;;4999361;28;20049;-71
2023/03/29 02:49:45;;;;;;;4.78;1.98;;;5.70;84.40;;;;;;5009260;28;20048;-69
2023/03/29 02:52:23;;;;;;;5.20;1.77;;;5.70;84.50;;;;;;4999755;28;20056;-71
2023/03/29 02:54:59;;;;;;;4.57;1.77;;;5.70;84.20;;;;;;5000076;28;20049;-70
2023/03/29 02:57:34;;;;;;;4.00;1.90;;;5.70;84.20;;;;;;5012401;28;20056;-70
2023/03/29 03:00:09;;;;;;;5.32;1.60;;;5.70;84.40;;;;;;5035083;28;20141;-70
2023/03/29 03:02:45;;;;;;;6.30;2.13;;;5.70;84.50;;;;;;5038782;28;20053;-70
2023/03/29 03:05:19;;;;;;;3.97;1.52;;;5.70;84.60;;;;;;5036752;28;20050;-68
2023/03/29 03:07:52;;;;;;;5.82;1.98;;;5.70;84.70;;;;;;5014940;28;20427;-70
2023/03/29 03:10:25;;;;;;;4.72;1.73;;;5.70;84.70;;;;;;5012685;28;20732;-68
2023/03/29 03:12:58;;;;;;;4.65;1.90;;;5.70;84.70;;;;;;5034948;28;20135;-69
2023/03/29 03:15:34;;;;;;;5.13;1.65;;;5.70;84.90;;;;;;5009316;28;20049;-69
2023/03/29 03:18:11;;;;;;;5.60;1.67;;;5.70;84.60;;;;;;5004885;28;20168;-71
2023/03/29 03:20:45;;;;;;;5.03;1.80;;;5.70;83.90;;;;;;5036545;28;20510;-68
2023/03/29 03:23:19;;;;;;;4.55;1.50;;;5.70;84.10;;;;;;5005996;28;20053;-70
2023/03/29 03:25:52;;;;;;;3.60;1.58;;;5.70;83.90;;;;;;5020643;28;20045;-70
2023/03/29 03:28:26;;;;;;;3.40;1.65;;;5.60;84.10;;;;;;5033053;28;20041;-68
2023/03/29 03:31:00;;;;;;;5.40;1.77;;;5.60;84.10;;;;;;5033693;28;20099;-69
2023/03/29 03:34:11;;;;;;;4.38;1.70;;;5.60;84.10;;;;;;5021453;28;20053;-69
2023/03/29 03:37:00;;;;;;;3.65;1.70;;;5.60;84.20;;;;;;5045473;28;20341;-69
2023/03/29 03:39:35;;;;;;;5.32;1.80;;;5.60;84.10;;;;;;5026817;28;20107;-68
2023/03/29 03:42:10;;;;;;;5.63;2.00;;;5.60;84.10;;;;;;5047889;28;20068;-71
2023/03/29 03:44:45;;;;;;;3.80;1.80;;;5.60;84.20;;;;;;5014556;28;20053;-70
2023/03/29 03:47:45;;;;;;;4.55;1.85;;;5.70;83.90;;;;;;5031747;28;20977;-71
2023/03/29 03:50:49;;;;;;;3.90;1.67;;;5.60;84.10;;;;;;5011274;28;20046;-70
2023/03/29 03:53:26;;;;;;;4.00;1.48;;;5.50;84.10;;;;;;5015924;28;20051;-70
2023/03/29 03:56:12;;;;;;;4.20;1.75;;;5.60;84.10;;;;;;5034337;28;20042;-71
2023/03/29 03:59:09;;;;;;;5.70;1.80;;;5.50;84.20;;;;;;5014405;28;20967;-68
2023/03/29 04:02:03;;;;;;;4.90;1.67;;;5.50;84.40;;;;;;5011989;28;20057;-70
2023/03/29 04:04:39;;;;;;;4.45;1.60;;;5.50;84.30;;;;;;5014363;28;20044;-70
2023/03/29 04:07:19;;;;;;;5.03;1.45;;;5.50;84.20;;;;;;5016197;28;20091;-69
2023/03/29 04:10:01;;;;;;;4.85;2.00;;;5.50;84.30;;;;;;5015242;28;20069;-70
2023/03/29 04:12:46;;;;;;;3.67;1.55;;;5.50;84.40;;;;;;5018861;28;20048;-69
2023/03/29 04:15:20;;;;;;;5.22;1.70;;;5.50;84.50;;;;;;5019968;28;20057;-70
2023/03/29 04:18:03;;;;;;;3.83;1.58;;;5.50;84.50;;;;;;5017993;28;20060;-69
2023/03/29 04:20:47;;;;;;;4.00;1.77;;;5.50;84.40;;;;;;5003971;28;20488;-69
2023/03/29 04:23:24;;;;;;;5.07;1.67;;;5.50;84.50;;;;;;5018976;28;20503;-70
2023/03/29 04:25:58;;;;;;;4.25;1.60;;;5.40;84.70;;;;;;5021005;28;20102;-70
2023/03/29 04:28:57;;;;;;;4.93;1.83;;;5.50;84.70;;;;;;5031482;28;20037;-68
2023/03/29 04:31:40;;;;;;;5.07;2.10;;;5.50;84.40;;;;;;5018893;28;20126;-69
2023/03/29 04:34:33;;;;;;;4.18;1.30;;;5.50;84.40;;;;;;5017609;28;20045;-68
2023/03/29 04:37:09;;;;;;;4.95;1.60;;;5.50;84.70;;;;;;5018108;28;20056;-70
2023/03/29 04:39:44;;;;;;;4.25;1.92;;;5.50;84.70;;;;;;5034487;28;20048;-69
2023/03/29 04:42:19;;;;;;;6.20;1.95;;;5.50;84.80;;;;;;5017441;28;20050;-69
2023/03/29 04:44:52;;;;;;;5.43;1.88;;;5.50;84.80;;;;;;5005392;28;20416;-71
2023/03/29 04:47:42;;;;;;;4.60;1.75;;;5.50;84.80;;;;;;5014021;28;20480;-69
2023/03/29 04:50:24;;;;;;;4.18;1.75;;;5.50;84.70;;;;;;5029583;28;20578;-69
2023/03/29 04:53:06;;;;;;;4.50;1.85;;;5.50;84.80;;;;;;5017005;28;20106;-69
2023/03/29 04:55:47;;;;;;;5.38;1.63;;;5.50;84.50;;;;;;5018163;28;20057;-70
2023/03/29 04:58:32;;;;;;;5.88;1.80;;;5.50;84.70;;;;;;5007126;28;20480;-69
2023/03/29 05:01:06;;;;;;;5.30;1.92;;;5.50;84.50;;;;;;5018321;28;20060;-69
2023/03/29 05:03:43;;;;;;;4.32;2.10;;;5.50;84.70;;;;;;5035283;28;20939;-69
2023/03/29 05:06:23;;;;;;;;;;;5.50;84.60;;;;;;5034662;28;20072;-70
2023/03/29 05:08:57;;;;;;;5.30;2.20;;;5.50;84.80;;;;;;5035397;28;19959;-69
2023/03/29 05:11:45;;;;;;;3.47;1.63;;;5.50;84.40;;;;;;5017281;28;20061;-69
2023/03/29 05:14:20;;;;;;;4.80;1.90;;;5.60;84.20;;;;;;5017048;28;20528;-70
2023/03/29 05:16:53;;;;;;;4.10;2.08;;;5.60;84.20;;;;;;5014468;28;20053;-70
2023/03/29 05:19:27;;;;;;;3.38;1.70;;;5.50;84.40;;;;;;5017430;28;20056;-69
2023/03/29 05:22:00;;;;;;;3.53;1.60;;;5.50;84.50;;;;;;5031966;28;20049;-68
2023/03/29 05:24:33;;;;;;;4.43;1.63;;;5.50;84.40;;;;;;5014944;28;20037;-70
2023/03/29 05:27:15;;;;;;;4.72;1.67;;;5.50;84.10;;;;;;5023850;28;20092;-70
2023/03/29 05:30:00;;;;;;;2.95;1.50;;;5.60;83.90;;;;;;5012937;28;20037;-69
2023/03/29 05:32:51;;;;;;;2.75;1.60;;;5.60;84.00;;;;;;5017293;28;20140;-70
2023/03/29 05:35:27;;;;;;;3.53;1.48;;;5.60;84.10;;;;;;5013823;28;20045;-68
2023/03/29 05:38:03;;;;;;;4.20;1.70;;;5.60;83.90;;;;;;5013626;28;20054;-69
2023/03/29 05:40:36;;;;;;;3.08;1.45;;;5.60;83.90;;;;;;5031442;28;20065;-70
2023/03/29 05:43:40;;;;;;;3.85;1.45;;;5.60;84.00;;;;;;5013261;28;20634;-70
2023/03/29 05:46:13;;;;;;;3.67;1.70;;;5.60;84.00;;;;;;5024089;28;20050;-67
2023/03/29 05:48:51;;;;;;;4.63;1.70;;;5.60;84.10;;;;;;5016320;28;20492;-69
2023/03/29 05:51:46;;;;;;;3.55;1.38;;;5.60;84.20;;;;;;5011493;28;20051;-68
2023/03/29 05:54:20;;;;;;;6.13;1.60;;;5.70;84.30;;;;;;5027787;28;20108;-69
2023/03/29 05:56:54;;;;;;;4.13;1.90;;;5.70;83.90;;;;;;5011793;28;20050;-70
2023/03/29 05:59:29;;;;;;;4.43;1.73;;;5.70;84.00;;;;;;5030650;28;20057;-68
2023/03/29 06:02:03;;;;;;;6.28;1.98;;;5.70;84.00;;;;;;5024266;28;20037;-69
2023/03/29 06:04:41;;;;;;;4.38;1.85;;;5.70;83.80;;;;;;5003905;28;20091;-69
2023/03/29 06:07:37;;;;;;;4.40;1.75;;;5.80;83.60;;;;;;5012174;28;20128;-69
2023/03/29 06:10:35;;;;;;;5.10;2.13;;;5.80;83.40;;;;;;5028979;28;20060;-70
2023/03/29 06:13:25;;;;;;;4.45;2.13;;;5.80;83.50;;;;;;5030807;28;20060;-70
2023/03/29 06:16:00;;;;;;;5.55;2.20;;;5.80;83.40;;;;;;5001713;28;20131;-70
2023/03/29 06:18:33;;;;;;;7.45;2.38;;;5.80;83.40;;;;;;5003584;28;20072;-69
2023/03/29 06:21:08;;;;;;;5.30;2.20;;;5.80;83.30;;;;;;5008536;28;20049;-69
2023/03/29 06:23:42;;;;;;;8.75;3.10;;;5.80;83.50;;;;;;5002777;28;20052;-69
2023/03/29 06:26:17;;;;;;;8.45;3.20;;;5.80;83.60;;;;;;5016446;28;20056;-70
2023/03/29 06:28:51;;;;;;;7.70;3.22;;;5.90;83.50;;;;;;5013171;28;20064;-70
2023/03/29 06:31:26;;;;;;;7.35;3.03;;;5.90;83.20;;;;;;5011455;28;20050;-70
2023/03/29 06:34:00;;;;;;;6.78;2.50;;;6.00;82.50;;;;;;5016892;28;20492;-69
2023/03/29 06:36:53;;;;;;;6.70;2.58;;;6.10;82.10;;;;;;5033248;28;20049;-68
2023/03/29 06:39:27;;;;;;;4.68;2.22;;;6.20;82.40;;;;;;5009583;28;20049;-69
2023/03/29 06:42:29;;;;;;;5.55;2.20;;;6.20;82.20;;;;;;5023693;28;20057;-68
2023/03/29 06:45:22;;;;;;;3.95;2.03;;;6.30;81.80;;;;;;5032998;28;20063;-69
2023/03/29 06:48:04;;;;;;;4.32;1.63;;;6.30;81.40;;;;;;5022694;28;20050;-69
2023/03/29 06:50:38;;;;;;;3.13;1.55;;;6.40;81.10;;;;;;5018718;28;20049;-68
2023/03/29 06:53:14;;;;;;;4.78;1.90;;;6.40;81.20;;;;;;5014392;28;20049;-69
2023/03/29 06:55:55;;;;;;;7.97;2.88;;;6.40;81.50;;;;;;4993846;28;20042;-69
2023/03/29 06:58:43;;;;;;;5.97;3.22;;;6.50;82.00;;;;;;4999678;28;20044;-69
2023/03/29 07:01:39;;;;;;;6.32;2.60;;;6.60;81.60;;;;;;4994329;28;20493;-69
2023/03/29 07:04:31;;;;;;;4.95;2.63;;;6.70;81.60;;;;;;4988616;28;20046;-69
2023/03/29 07:07:18;;;;;;;8.63;2.72;;;6.70;81.70;;;;;;4994951;28;20104;-68
2023/03/29 07:10:00;;;;;;;4.82;2.40;;;6.70;81.80;;;;;;4994490;28;20053;-70
2023/03/29 07:12:53;;;;;;;5.30;2.28;;;6.80;81.40;;;;;;5012092;28;20057;-69
2023/03/29 07:15:27;;;;;;;4.28;1.92;;;6.90;81.20;;;;;;4997809;28;20089;-70
2023/03/29 07:18:19;;;;;;;4.57;1.90;;;6.90;80.80;;;;;;5013711;28;20208;-69
2023/03/29 07:20:54;;;;;;;4.72;2.03;;;7.00;80.70;;;;;;5012751;28;20176;-70
2023/03/29 07:23:28;;;;;;;4.20;1.60;;;7.00;80.40;;;;;;5011790;28;20511;-69
2023/03/29 07:26:02;;;;;;;6.10;1.70;;;7.10;80.20;;;;;;4996028;28;20136;-70
2023/03/29 07:28:36;;;;;;;5.88;1.83;;;7.10;80.20;;;;;;5012616;28;20048;-69
2023/03/29 07:31:12;;;;;;;4.90;2.17;;;7.20;79.90;;;;;;5017572;28;20073;-69
2023/03/29 07:33:52;;;;;;;3.80;1.40;;;7.20;79.70;;;;;;4988901;28;20489;-70
2023/03/29 07:36:27;;;;;;;3.95;1.63;;;7.30;79.20;;;;;;5003026;28;20049;-71
2023/03/29 07:39:02;;;;;;;4.30;1.90;;;7.40;79.10;;;;;;4984896;28;20051;-73
2023/03/29 07:41:37;;;;;;;4.55;1.75;;;7.40;78.90;;;;;;4992691;28;20045;-70
2023/03/29 07:44:13;;;;;;;4.32;1.70;;;7.40;78.30;;;;;;5011295;28;20053;-70
2023/03/29 07:46:47;;;;;;;4.50;1.90;;;7.50;78.20;;;;;;4998787;28;20132;-70
2023/03/29 07:49:21;;;;;;;4.57;1.77;;;7.50;78.20;;;;;;5017037;28;20565;-69
2023/03/29 07:52:02;;;;;;;5.82;1.85;;;7.60;78.10;;;;;;4991989;28;20053;-70
2023/03/29 07:54:36;;;;;;;4.97;2.20;;;7.70;78.20;;;;;;4991829;28;20050;-70
2023/03/29 07:57:26;;;;;;;4.57;2.03;;;7.70;77.80;;;;;;5004253;28;20054;-69
2023/03/29 08:00:09;;;;;;;4.68;1.92;;;7.80;77.50;;;;;;4999630;28;20057;-67
2023/03/29 08:02:52;;;;;;;5.07;2.05;;;7.90;77.70;;;;;;4993997;28;20131;-68
2023/03/29 08:05:25;;;;;;;3.58;1.80;;;7.90;77.40;;;;;;4994753;28;20503;-70
2023/03/29 08:08:06;;;;;;;4.50;1.75;;;8.00;77.30;;;;;;4995404;28;20068;-70
2023/03/29 08:10:57;;;;;;;4.68;1.52;;;8.10;77.20;;;;;;5009098;28;20528;-70
2023/03/29 08:13:51;;;;;;;6.75;1.73;;;8.20;77.10;;;;;;5007779;28;20104;-70
2023/03/29 08:16:27;;;;;;;2.92;1.30;;;8.20;76.90;;;;;;5010140;28;20162;-70
2023/03/29 08:19:08;;;;;;;2.45;1.40;;;8.20;76.90;;;;;;4995735;28;20053;-70
2023/03/29 08:21:52;;;;;;;4.00;1.77;;;8.30;77.10;;;;;;4993352;28;20050;-69
2023/03/29 08:24:30;;;;;;;5.50;2.10;;;8.40;77.00;;;;;;4990768;28;20057;-70
2023/03/29 08:27:07;;;;;;;4.15;1.70;;;8.50;76.80;;;;;;4997980;28;20060;-69
2023/03/29 08:29:40;;;;;;;3.78;1.60;;;8.50;76.70;;;;;;4989976;28;20602;-70
2023/03/29 08:32:14;;;;;;;4.53;1.75;;;8.60;76.70;;;;;;4993473;28;20504;-71
2023/03/29 08:34:47;;;;;;;3.28;1.65;;;8.70;76.60;;;;;;5013027;28;20104;-70
2023/03/29 08:37:25;;;;;;;4.35;1.67;;;8.70;76.60;;;;;;4993298;28;20056;-70
2023/03/29 08:40:00;;;;;;;3.35;1.50;;;8.70;76.40;;;;;;4984563;28;20042;-68
2023/03/29 08:43:04;;;;;;;4.28;1.80;;;8.80;76.30;;;;;;5011776;28;20038;-69
2023/03/29 08:46:26;;;;;;;4.15;1.48;;;8.90;76.10;;;;;;5008221;28;20064;-68
2023/03/29 08:49:14;;;;;;;4.82;1.60;;;9.00;76.00;;;;;;4983319;28;20688;-68
2023/03/29 08:52:04;;;;;;;4.20;1.92;;;9.10;75.90;;;;;;5014647;28;20092;-70
2023/03/29 08:54:43;;;;;;;4.15;1.73;;;9.10;75.80;;;;;;5009898;28;20114;-71
2023/03/29 08:57:44;;;;;;;4.43;1.80;;;9.10;75.90;;;;;;5030383;28;20138;-69
2023/03/29 09:00:34;;;;;;;3.50;1.58;;;9.10;75.80;;;;;;5012296;28;20049;-68
2023/03/29 09:03:15;;;;;;;5.60;1.95;;;9.10;75.80;;;;;;5030260;28;20041;-70
2023/03/29 09:05:51;;;;;;;4.50;2.00;;;9.10;75.70;;;;;;5031056;28;20049;-68
2023/03/29 09:08:27;;;;;;;6.25;1.90;;;9.20;75.80;;;;;;5028223;28;20476;-68
2023/03/29 09:11:17;;;;;;;4.72;1.80;;;9.20;75.40;;;;;;5013042;28;20045;-71
2023/03/29 09:13:58;;;;;;;;;;;9.20;75.20;;;;;;5015190;28;20660;-69
2023/03/29 09:16:37;;;;;;;5.65;1.90;;;9.20;74.70;;;;;;5031380;28;19929;-70
2023/03/29 09:19:22;;;;;;;3.95;1.60;;;9.30;74.30;;;;;;5033769;28;20049;-70
2023/03/29 09:22:03;;;;;;;3.25;1.73;;;9.30;74.00;;;;;;5021048;28;20045;-70
2023/03/29 09:24:42;;;;;;;;;;;9.30;73.70;;;;;;5031881;28;20667;-70
2023/03/29 09:27:31;;;;;;;3.72;1.80;;;9.40;73.80;;;;;;5033947;28;20507;-69
2023/03/29 09:30:24;;;;;;;4.05;1.85;;;9.50;73.80;;;;;;5014895;28;20539;-70
2023/03/29 09:33:09;;;;;;;4.57;2.00;;;9.50;73.80;;;;;;5006597;28;20145;-70
2023/03/29 09:36:11;;;;;;;5.18;2.10;;;9.60;73.70;;;;;;5026871;28;20048;-68
2023/03/29 09:38:52;;;;;;;5.60;1.83;;;9.70;73.20;;;;;;5010966;28;20050;-70
2023/03/29 09:41:35;;;;;;;4.57;2.30;;;9.80;73.20;;;;;;5027445;28;20487;-70
2023/03/29 09:44:13;;;;;;;4.22;1.92;;;9.90;73.20;;;;;;5011147;28;20146;-70
2023/03/29 09:46:54;;;;;;;5.28;1.80;;;9.90;72.90;;;;;;5029802;28;20903;-70
2023/03/29 09:49:37;;;;;;;6.32;2.33;;;10.00;72.40;;;;;;5015846;28;20050;-70
2023/03/29 09:52:19;;;;;;;3.67;1.83;;;10.10;72.40;;;;;;5007512;28;20046;-68
2023/03/29 09:55:15;;;;;;;4.03;1.80;;;10.10;71.90;;;;;;4998664;28;20132;-69
2023/03/29 09:58:05;;;;;;;4.47;1.80;;;10.20;72.10;;;;;;5014156;28;20115;-69
2023/03/29 10:00:43;;;;;;;6.63;2.42;;;10.30;72.10;;;;;;4994107;28;20056;-70
2023/03/29 10:03:20;;;;;;;4.45;2.15;;;10.40;71.50;;;;;;4992578;28;20551;-70
2023/03/29 10:06:11;;;;;;;4.75;2.00;;;10.50;71.10;;;;;;4994946;28;20053;-70
2023/03/29 10:08:53;;;;;;;4.55;2.00;;;10.60;70.80;;;;;;4996710;28;20056;-69
2023/03/29 10:11:34;;;;;;;5.30;2.00;;;10.70;70.70;;;;;;5008902;28;20042;-70
2023/03/29 10:14:16;;;;;;;4.13;1.52;;;10.80;70.70;;;;;;5008581;28;20049;-71
2023/03/29 10:16:55;;;;;;;4.65;1.67;;;10.80;70.20;;;;;;5012410;28;20529;-69
2023/03/29 10:19:33;;;;;;;6.10;2.10;;;10.90;70.30;;;;;;5010167;28;20132;-70
2023/03/29 10:22:16;;;;;;;4.10;1.80;;;10.90;70.50;;;;;;5004813;28;20143;-70
2023/03/29 10:24:51;;;;;;;5.88;1.77;;;10.90;69.80;;;;;;5006779;28;20049;-69
2023/03/29 10:27:27;;;;;;;4.68;2.13;;;10.90;70.50;;;;;;5000712;28;20045;-71
2023/03/29 10:30:10;;;;;;;5.57;1.80;;;10.90;69.90;;;;;;5011071;28;20058;-69
2023/03/29 10:32:44;;;;;;;4.68;1.83;;;11.00;69.40;;;;;;5004746;28;20172;-69
2023/03/29 10:35:23;;;;;;;4.10;1.75;;;11.00;68.90;;;;;;5008549;28;20074;-69
2023/03/29 10:37:59;;;;;;;4.05;1.55;;;11.10;68.60;;;;;;5005251;28;20507;-71
2023/03/29 10:40:34;;;;;;;3.92;1.90;;;11.10;68.70;;;;;;5007826;28;20050;-69
2023/03/29 10:43:14;;;;;;;5.90;2.03;;;11.20;68.40;;;;;;5007389;28;20034;-70
2023/03/29 10:45:49;;;;;;;4.88;1.73;;;11.30;68.10;;;;;;5008747;28;20073;-67
2023/03/29 10:48:27;;;;;;;6.13;1.83;;;11.30;68.40;;;;;;5009936;28;20393;-70
2023/03/29 10:51:10;;;;;;;4.85;2.08;;;11.40;67.80;;;;;;5008837;28;20578;-72
2023/03/29 10:53:44;;;;;;;4.32;1.98;;;11.50;67.80;;;;;;5009394;28;20046;-70
2023/03/29 10:56:29;;;;;;;5.03;2.47;;;11.50;67.10;;;;;;5007301;28;20045;-68
2023/03/29 10:59:23;;;;;;;5.28;2.20;;;11.50;66.70;;;;;;5007581;28;20061;-70
2023/03/29 11:02:45;;;;;;;4.63;1.90;;;11.40;66.70;;;;;;5011395;28;20041;-69
2023/03/29 11:05:25;;;;;;;4.13;1.70;;;11.50;66.60;;;;;;4992853;28;20454;-69
2023/03/29 11:08:29;;;;;;;6.00;2.50;;;11.60;66.20;;;;;;5011491;28;20092;-70
2023/03/29 11:11:15;;;;;;;6.55;1.88;;;11.70;66.30;;;;;;5007770;28;20072;-70
2023/03/29 11:13:58;;;;;;;4.32;1.88;;;11.70;66.40;;;;;;5011740;28;20041;-69
2023/03/29 11:16:40;;;;;;;5.20;2.15;;;11.80;66.40;;;;;;5010374;28;20046;-69
2023/03/29 11:19:43;;;;;;;5.13;2.30;;;11.90;66.50;;;;;;5011058;28;20119;-69
2023/03/29 11:22:24;;;;;;;3.70;1.95;;;12.00;66.40;;;;;;5012588;28;20056;-70
2023/03/29 11:25:21;;;;;;;4.20;1.95;;;12.10;66.50;;;;;;4998232;28;20038;-69
2023/03/29 11:27:59;;;;;;;4.75;1.80;;;12.10;66.20;;;;;;5008726;28;20046;-68
2023/03/29 11:30:39;;;;;;;3.78;1.45;;;12.10;66.00;;;;;;5014339;28;20558;-69
2023/03/29 11:33:23;;;;;;;7.32;2.40;;;12.20;65.80;;;;;;5004935;28;20042;-70
2023/03/29 11:36:05;;;;;;;6.00;2.35;;;12.30;66.20;;;;;;5006477;28;20052;-69
2023/03/29 11:38:46;;;;;;;6.05;2.38;;;12.40;65.90;;;;;;5007982;28;20041;-69
2023/03/29 11:41:25;;;;;;;5.20;2.17;;;12.40;65.50;;;;;;5004985;28;20037;-71
2023/03/29 11:44:04;;;;;;;6.07;2.53;;;12.50;65.40;;;;;;5006123;28;20033;-69
2023/03/29 11:46:41;;;;;;;4.68;2.03;;;12.50;66.00;;;;;;5008723;28;20069;-70
2023/03/29 11:49:20;;;;;;;4.65;1.88;;;12.50;65.80;;;;;;5012419;28;20552;-70
2023/03/29 11:52:08;;;;;;;5.72;1.83;;;12.50;65.50;;;;;;5009616;28;22062;-71
2023/03/29 11:54:44;;;;;;;4.38;2.00;;;12.50;65.70;;;;;;5016584;28;20057;-70
2023/03/29 11:57:25;;;;;;;4.32;1.77;;;12.50;65.90;;;;;;5011207;28;20688;-71
2023/03/29 12:00:04;;;;;;;4.50;1.65;;;12.60;66.00;;;;;;4992822;28;20456;-69
2023/03/29 12:02:44;;;;;;;3.53;1.90;;;12.60;66.10;;;;;;5013806;28;20144;-70
2023/03/29 12:05:22;;;;;;;4.57;1.70;;;12.60;66.00;;;;;;5009273;28;20049;-70
2023/03/29 12:08:02;;;;;;;3.65;1.65;;;12.60;66.00;;;;;;5004152;28;20148;-70
2023/03/29 12:10:39;;;;;;;4.70;1.83;;;12.70;65.70;;;;;;5010201;28;20045;-70
2023/03/29 12:13:21;;;;;;;4.97;1.60;;;12.80;65.50;;;;;;5011850;28;20108;-70
2023/03/29 12:15:59;;;;;;;3.65;1.42;;;12.80;65.90;;;;;;5014610;28;20128;-70
2023/03/29 12:18:38;;;;;;;3.85;1.80;;;12.90;66.00;;;;;;5012365;28;20548;-69
2023/03/29 12:21:14;;;;;;;4.72;1.48;;;13.00;66.40;;;;;;5011409;28;20760;-70
2023/03/29 12:23:43;;;;;;;5.63;2.05;;;13.00;66.30;;;;;;5006653;28;20041;-69
2023/03/29 12:26:32;;;;;;;4.57;1.80;;;13.00;66.10;;;;;;5005610;28;20049;-70
2023/03/29 12:29:22;;;;;;;3.75;1.65;;;13.10;66.40;;;;;;5012394;28;20062;-69
2023/03/29 12:32:04;;;;;;;4.35;1.48;;;13.10;65.90;;;;;;5009066;28;20042;-71
2023/03/29 12:35:09;;;;;;;3.50;1.50;;;13.20;65.30;;;;;;4990475;28;20072;-69
2023/03/29 12:38:19;;;;;;;3.97;1.58;;;13.20;65.80;;;;;;5007611;28;20124;-69
2023/03/29 12:41:17;;;;;;;4.40;1.75;;;13.20;65.70;;;;;;5011228;28;20519;-69
2023/03/29 12:44:14;;;;;;;3.03;1.45;;;13.30;65.90;;;;;;5007078;28;20049;-72
2023/03/29 12:46:54;;;;;;;4.82;1.63;;;13.40;66.20;;;;;;5016260;28;20083;-68
2023/03/29 12:49:31;;;;;;;3.75;1.60;;;13.50;65.70;;;;;;5011102;28;20041;-69
2023/03/29 12:52:29;;;;;;;3.70;1.75;;;13.60;66.20;;;;;;5015561;28;20520;-71
2023/03/29 12:55:20;;;;;;;3.53;1.52;;;13.60;66.10;;;;;;5010466;28;20152;-69
2023/03/29 12:58:05;;;;;;;4.47;1.50;;;13.60;66.20;;;;;;5011484;28;20054;-70
2023/03/29 13:00:45;;;;;;;5.03;1.75;;;13.50;66.50;;;;;;4995601;28;20137;-70
2023/03/29 13:03:22;;;;;;;3.45;1.52;;;13.50;66.30;;;;;;4984413;28;20050;-68
2023/03/29 13:06:03;;;;;;;3.15;1.40;;;13.50;66.60;;;;;;5006437;28;20103;-70
2023/03/29 13:08:39;;;;;;;4.75;1.40;;;13.40;66.70;;;;;;5011738;28;20053;-70
2023/03/29 13:11:26;;;;;;;5.03;1.60;;;13.50;66.50;;;;;;5008847;28;20168;-71
2023/03/29 13:14:03;;;;;;;4.63;1.88;;;13.40;66.70;;;;;;5010391;28;20085;-70
2023/03/29 13:16:41;;;;;;;5.22;1.70;;;13.40;67.00;;;;;;5012188;28;20056;-70
2023/03/29 13:19:30;;;;;;;4.78;1.55;;;13.50;67.20;;;;;;5010640;28;20087;-70
2023/03/29 13:22:17;;;;;;;3.90;1.50;;;13.50;67.30;;;;;;5011343;28;20050;-71
2023/03/29 13:25:15;;;;;;;4.13;1.45;;;13.50;67.20;;;;;;5007749;28;20037;-70
2023/03/29 13:27:57;;;;;;;4.22;1.58;;;13.50;67.60;;;;;;5014289;28;20100;-70
2023/03/29 13:30:43;;;;;;;4.32;1.63;;;13.60;67.40;;;;;;5012444;28;20049;-70
2023/03/29 13:33:36;;;;;;;3.40;1.30;;;13.60;67.40;;;;;;5008195;28;20500;-71
2023/03/29 13:36:17;;;;;;;4.38;1.33;;;13.50;67.90;;;;;;5013274;28;20057;-70
2023/03/29 13:38:54;;;;;;;4.22;1.83;;;13.50;67.80;;;;;;5013320;28;20042;-71
2023/03/29 13:41:32;;;;;;;3.85;1.38;;;13.50;68.00;;;;;;5008603;28;20484;-70
2023/03/29 13:44:17;;;;;;;4.78;1.70;;;13.50;67.80;;;;;;5012435;28;20510;-71
2023/03/29 13:47:03;;;;;;;3.10;1.35;;;13.40;68.00;;;;;;5013430;28;20066;-71
2023/03/29 13:49:53;;;;;;;2.17;1.30;;;13.40;68.40;;;;;;5016229;28;20055;-71
2023/03/29 13:52:34;;;;;;;;;;;13.50;68.30;;;;;;5009996;28;20056;-70
2023/03/29 13:55:15;;;;;;;5.10;1.65;;;13.60;68.10;;;;;;4999512;28;19925;-70
2023/03/29 13:58:03;;;;;;;4.07;1.45;;;13.60;68.40;;;;;;4998851;28;20054;-71
2023/03/29 14:00:45;;;;;;;6.40;1.90;;;13.70;68.30;;;;;;5011744;28;20139;-70
2023/03/29 14:03:29;;;;;;;3.30;1.48;;;13.80;68.40;;;;;;5006638;28;20135;-70
2023/03/29 14:06:05;;;;;;;6.00;1.85;;;13.80;68.20;;;;;;5007510;28;20069;-70
2023/03/29 14:08:41;;;;;;;4.97;1.95;;;13.80;68.20;;;;;;5010947;28;20046;-70